Terminal Aerodrome Forecast
Issued by NWS

Home | Current Version | Previous Version | Text Only | Print | Product List | Glossary On
Versions: 1 2 3 4 5 6 7 8 9 10 11 12 13 14 15 16 17 18 19 20 21 22 23 24 25 26
000
FTUS43 KBIS 220300 AAC
TAFMOT
TAF AMD
KMOT 220350Z 2204/2224 12007KT 2SM BR OVC001
     FM220800 08008KT 1SM -SN BR OVC002
     FM221200 35010KT 2SM -SN BR OVC005=

USA.gov is the U.S. government's official web portal to all federal, state and local government web resources and services.